createdAt,value
2019-01-20T00:00:30.930Z,12.58
2019-01-20T00:01:09.040Z,12.85
2019-01-20T00:01:45.118Z,13.13
2019-01-20T00:02:20.894Z,13.53
2019-01-20T00:02:56.599Z,12.98
2019-01-20T00:03:32.644Z,13.93
2019-01-20T00:04:08.630Z,14.00
2019-01-20T00:04:44.742Z,13.53
2019-01-20T00:05:20.795Z,12.68
2019-01-20T00:05:56.740Z,14.50
2019-01-20T00:06:32.442Z,13.53
2019-01-20T00:07:08.214Z,13.05
2019-01-20T00:07:44.236Z,14.38
2019-01-20T00:08:19.974Z,14.03
2019-01-20T00:08:55.961Z,13.93
2019-01-20T00:09:32.039Z,14.58
2019-01-20T00:10:08.338Z,13.80
2019-01-20T00:10:44.074Z,13.38
2019-01-20T00:11:19.848Z,14.78
2019-01-20T00:11:55.850Z,14.30
2019-01-20T00:12:31.587Z,14.65
2019-01-20T00:13:07.322Z,13.38
2019-01-20T00:13:43.044Z,14.05
2019-01-20T00:14:18.992Z,14.60
2019-01-20T00:14:54.759Z,14.95
2019-01-20T00:15:30.503Z,13.85
2019-01-20T00:16:06.414Z,14.68
2019-01-20T00:16:42.179Z,13.62
2019-01-20T00:17:17.967Z,14.47
2019-01-20T00:17:53.761Z,14.95
2019-01-20T00:18:29.474Z,14.20
2019-01-20T00:19:05.478Z,14.75
2019-01-20T00:19:41.548Z,14.93
2019-01-20T00:20:17.724Z,14.78
2019-01-20T00:20:54.033Z,15.18
2019-01-20T00:21:29.767Z,15.75
2019-01-20T00:22:06.303Z,14.25
2019-01-20T00:22:42.022Z,14.30
2019-01-20T00:23:17.778Z,14.83
2019-01-20T00:23:53.544Z,13.62
2019-01-20T00:24:29.630Z,13.95
2019-01-20T00:25:06.282Z,13.60
2019-01-20T00:25:42.223Z,14.23
2019-01-20T00:26:18.275Z,13.95
2019-01-20T00:26:54.000Z,14.45
2019-01-20T00:27:29.714Z,15.48
2019-01-20T00:28:05.552Z,14.07
2019-01-20T00:28:41.267Z,14.45
2019-01-20T00:29:17.028Z,14.25
2019-01-20T00:29:53.055Z,15.20
2019-01-20T00:30:28.836Z,14.80
2019-01-20T00:31:05.228Z,14.93
2019-01-20T00:31:41.226Z,14.58
2019-01-20T00:32:16.978Z,15.28
2019-01-20T00:32:52.711Z,15.05
2019-01-20T00:33:28.729Z,15.15
2019-01-20T00:34:04.672Z,14.60
2019-01-20T00:34:40.689Z,14.93
2019-01-20T00:35:16.432Z,14.78
2019-01-20T00:35:52.172Z,14.47
2019-01-20T00:36:27.919Z,15.50
2019-01-20T00:37:04.182Z,15.25
2019-01-20T00:37:40.057Z,15.03
2019-01-20T00:38:15.926Z,14.90
2019-01-20T00:38:51.994Z,15.00
2019-01-20T00:39:27.754Z,15.13
2019-01-20T00:40:04.699Z,15.90
2019-01-20T00:40:40.419Z,15.15
2019-01-20T00:41:23.831Z,14.38
2019-01-20T00:41:53.913Z,15.10
2019-01-20T00:42:29.657Z,15.40
2019-01-20T00:43:05.391Z,15.72
2019-01-20T00:43:41.160Z,14.05
2019-01-20T00:44:17.471Z,15.78
2019-01-20T00:44:53.291Z,14.68
2019-01-20T00:45:29.343Z,15.80
2019-01-20T00:46:05.177Z,15.50
2019-01-20T00:46:40.925Z,16.65
2019-01-20T00:47:16.835Z,15.15
2019-01-20T00:47:52.817Z,15.25
2019-01-20T00:48:28.536Z,16.35
2019-01-20T00:49:04.528Z,16.23
2019-01-20T00:49:40.539Z,16.23
2019-01-20T00:50:16.693Z,15.88
2019-01-20T00:50:52.416Z,15.85
2019-01-20T00:51:28.517Z,15.18
2019-01-20T00:52:04.641Z,16.23
2019-01-20T00:52:40.403Z,16.87
2019-01-20T00:53:16.154Z,15.40
2019-01-20T00:53:52.135Z,17.05
2019-01-20T00:54:28.133Z,16.62
2019-01-20T00:55:04.136Z,15.90
2019-01-20T00:55:39.868Z,16.30
2019-01-20T00:56:15.611Z,15.63
2019-01-20T00:56:51.355Z,16.17
2019-01-20T00:57:27.112Z,16.17
2019-01-20T00:58:03.080Z,16.23
2019-01-20T00:58:38.839Z,17.05
2019-01-20T00:59:14.579Z,15.93
2019-01-20T00:59:50.484Z,16.57
2019-01-20T01:00:28.882Z,15.70
2019-01-20T01:01:04.627Z,16.65
2019-01-20T01:01:40.376Z,16.25
2019-01-20T01:02:16.396Z,16.42
2019-01-20T01:02:52.184Z,16.60
2019-01-20T01:03:27.970Z,16.42
2019-01-20T01:04:04.231Z,16.05
2019-01-20T01:04:40.010Z,16.07
2019-01-20T01:05:16.359Z,17.17
2019-01-20T01:05:52.099Z,16.52
2019-01-20T01:06:27.833Z,15.93
2019-01-20T01:07:04.059Z,16.95
2019-01-20T01:07:40.204Z,16.82
2019-01-20T01:08:16.465Z,16.50
2019-01-20T01:08:52.785Z,17.30
2019-01-20T01:09:28.785Z,17.15
2019-01-20T01:10:06.998Z,17.45
2019-01-20T01:10:43.387Z,17.05
2019-01-20T01:11:19.139Z,17.05
2019-01-20T01:11:54.935Z,17.15
2019-01-20T01:12:31.324Z,17.07
2019-01-20T01:13:07.070Z,17.20
2019-01-20T01:13:43.396Z,17.30
2019-01-20T01:14:19.215Z,17.32
2019-01-20T01:14:54.993Z,17.10
2019-01-20T01:15:30.900Z,16.52
2019-01-20T01:16:07.645Z,17.42
2019-01-20T01:16:43.937Z,17.07
2019-01-20T01:17:20.113Z,16.62
2019-01-20T01:17:55.839Z,16.77
2019-01-20T01:18:32.063Z,17.82
2019-01-20T01:19:07.910Z,18.32
2019-01-20T01:19:43.673Z,16.80
2019-01-20T01:20:20.085Z,16.67
2019-01-20T01:20:55.841Z,17.42
2019-01-20T01:21:32.219Z,16.40
2019-01-20T01:22:07.979Z,16.85
2019-01-20T01:22:43.912Z,18.27
2019-01-20T01:23:19.893Z,16.87
2019-01-20T01:23:55.966Z,17.37
2019-01-20T01:24:32.024Z,17.50
2019-01-20T01:25:09.484Z,16.48
2019-01-20T01:25:45.227Z,16.12
2019-01-20T01:26:21.006Z,16.90
2019-01-20T01:26:56.751Z,16.32
2019-01-20T01:27:32.499Z,16.57
2019-01-20T01:28:08.796Z,16.77
2019-01-20T01:28:44.650Z,16.00
2019-01-20T01:29:20.682Z,17.10
2019-01-20T01:29:57.216Z,17.27
2019-01-20T01:30:32.994Z,16.40
2019-01-20T01:31:08.823Z,15.60
2019-01-20T01:31:44.798Z,17.48
2019-01-20T01:32:21.674Z,17.70
2019-01-20T01:32:57.658Z,16.27
2019-01-20T01:33:33.401Z,17.02
2019-01-20T01:34:09.153Z,16.85
2019-01-20T01:34:44.990Z,16.93
2019-01-20T01:35:20.776Z,17.77
2019-01-20T01:35:56.769Z,16.60
2019-01-20T01:36:32.556Z,18.02
2019-01-20T01:37:08.707Z,17.75
2019-01-20T01:37:44.970Z,17.57
2019-01-20T01:38:20.989Z,18.57
2019-01-20T01:38:56.749Z,17.32
2019-01-20T01:39:32.481Z,17.25
2019-01-20T01:40:09.477Z,18.12
2019-01-20T01:40:45.322Z,18.02
2019-01-20T01:41:21.132Z,17.80
2019-01-20T01:41:56.872Z,18.40
2019-01-20T01:42:33.211Z,17.02
2019-01-20T01:43:09.463Z,18.27
2019-01-20T01:43:45.245Z,18.12
2019-01-20T01:44:21.006Z,18.62
2019-01-20T01:44:56.763Z,18.02
2019-01-20T01:45:32.791Z,17.60
2019-01-20T01:46:08.536Z,18.20
2019-01-20T01:46:44.539Z,18.70
2019-01-20T01:47:20.317Z,18.10
2019-01-20T01:47:56.030Z,18.75
2019-01-20T01:48:32.084Z,18.32
2019-01-20T01:49:07.845Z,19.00
2019-01-20T01:49:43.725Z,18.37
2019-01-20T01:50:20.244Z,19.37
2019-01-20T01:50:56.094Z,20.40
2019-01-20T01:51:32.620Z,18.82
2019-01-20T01:52:08.356Z,18.70
2019-01-20T01:52:44.125Z,19.23
2019-01-20T01:53:19.869Z,19.02
2019-01-20T01:53:55.858Z,19.07
2019-01-20T01:54:31.587Z,19.42
2019-01-20T01:55:08.593Z,18.87
2019-01-20T01:55:44.421Z,18.52
2019-01-20T01:56:20.640Z,19.10
2019-01-20T01:56:56.362Z,19.73
2019-01-20T01:57:32.077Z,19.20
2019-01-20T01:58:07.815Z,19.75
2019-01-20T01:58:43.577Z,20.95
2019-01-20T01:59:19.838Z,20.05
2019-01-20T01:59:55.563Z,19.15
2019-01-20T02:00:31.304Z,20.00
2019-01-20T02:01:07.185Z,19.65
2019-01-20T02:01:43.190Z,20.45
2019-01-20T02:02:19.295Z,18.98
2019-01-20T02:02:55.061Z,21.15
2019-01-20T02:03:30.788Z,18.70
2019-01-20T02:04:06.612Z,19.02
2019-01-20T02:04:42.975Z,19.95
2019-01-20T02:05:19.095Z,19.67
2019-01-20T02:05:54.840Z,20.75
2019-01-20T02:06:30.583Z,19.82
2019-01-20T02:07:06.944Z,19.48
2019-01-20T02:07:42.869Z,20.68
2019-01-20T02:08:18.925Z,19.87
2019-01-20T02:08:54.650Z,19.95
2019-01-20T02:09:30.424Z,20.25
2019-01-20T02:10:08.481Z,21.52
2019-01-20T02:10:44.271Z,21.77
2019-01-20T02:11:20.009Z,19.82
2019-01-20T02:11:55.745Z,21.85
2019-01-20T02:12:31.913Z,21.07
2019-01-20T02:13:08.641Z,21.95
2019-01-20T02:13:44.674Z,21.17
2019-01-20T02:14:20.447Z,21.10
2019-01-20T02:14:56.221Z,21.50
2019-01-20T02:15:31.958Z,20.35
2019-01-20T02:16:07.702Z,21.62
2019-01-20T02:16:43.430Z,21.35
2019-01-20T02:17:19.181Z,22.42
2019-01-20T02:17:55.203Z,21.75
2019-01-20T02:18:30.964Z,21.77
2019-01-20T02:19:07.286Z,20.62
2019-01-20T02:19:43.281Z,21.95
2019-01-20T02:20:23.886Z,21.80
2019-01-20T02:21:00.184Z,21.27
2019-01-20T02:21:36.373Z,21.15
2019-01-20T02:22:12.355Z,22.50
2019-01-20T02:22:48.500Z,22.95
2019-01-20T02:23:24.970Z,22.32
2019-01-20T02:24:00.699Z,21.82
2019-01-20T02:24:36.454Z,21.75
2019-01-20T02:25:12.215Z,21.50
2019-01-20T02:25:48.006Z,21.07
2019-01-20T02:26:24.000Z,22.25
2019-01-20T02:26:59.739Z,23.32
2019-01-20T02:27:35.481Z,21.75
2019-01-20T02:28:11.235Z,23.25
2019-01-20T02:28:47.005Z,22.90
2019-01-20T02:29:22.989Z,23.00
2019-01-20T02:29:58.735Z,21.97
2019-01-20T02:30:34.796Z,23.92
2019-01-20T02:31:10.574Z,21.60
2019-01-20T02:31:46.292Z,22.95
2019-01-20T02:32:22.086Z,22.80
2019-01-20T02:32:58.091Z,22.07
2019-01-20T02:33:33.831Z,23.57
2019-01-20T02:34:09.921Z,22.67
2019-01-20T02:34:45.711Z,22.32
2019-01-20T02:35:21.552Z,23.45
2019-01-20T02:35:57.293Z,24.18
2019-01-20T02:36:33.336Z,22.15
2019-01-20T02:37:09.054Z,22.73
2019-01-20T02:37:44.794Z,23.15
2019-01-20T02:38:20.941Z,23.57
2019-01-20T02:38:56.704Z,24.20
2019-01-20T02:39:32.732Z,23.05
2019-01-20T02:40:09.525Z,23.45
2019-01-20T02:40:45.717Z,22.75
2019-01-20T02:41:21.473Z,21.90
2019-01-20T02:41:57.753Z,22.93
2019-01-20T02:42:33.509Z,23.02
2019-01-20T02:43:09.234Z,22.50
2019-01-20T02:43:45.083Z,23.42
2019-01-20T02:44:20.870Z,23.22
2019-01-20T02:44:56.615Z,23.50
2019-01-20T02:45:32.975Z,23.52
2019-01-20T02:46:09.395Z,24.12
2019-01-20T02:46:45.423Z,23.32
2019-01-20T02:47:21.209Z,25.00
2019-01-20T02:47:56.944Z,23.95
2019-01-20T02:48:32.683Z,22.77
2019-01-20T02:49:08.462Z,24.47
2019-01-20T02:49:44.186Z,24.27
2019-01-20T02:50:20.284Z,23.32
2019-01-20T02:50:56.384Z,23.73
2019-01-20T02:51:32.144Z,24.12
2019-01-20T02:52:07.882Z,23.40
2019-01-20T02:52:43.642Z,24.50
2019-01-20T02:53:19.386Z,23.65
2019-01-20T02:53:55.120Z,22.93
2019-01-20T02:54:31.140Z,23.92
2019-01-20T02:55:06.949Z,23.73
2019-01-20T02:55:42.979Z,24.18
2019-01-20T02:56:18.712Z,23.75
2019-01-20T02:56:54.737Z,22.45
2019-01-20T02:57:30.469Z,24.12
2019-01-20T02:58:06.299Z,23.18
2019-01-20T02:58:42.034Z,24.43
2019-01-20T02:59:17.810Z,24.32
2019-01-20T02:59:53.552Z,23.87
2019-01-20T03:00:29.287Z,23.52
2019-01-20T03:01:05.638Z,24.50
2019-01-20T03:01:41.371Z,23.92
2019-01-20T03:02:17.268Z,23.18
2019-01-20T03:02:53.072Z,23.73
2019-01-20T03:03:28.802Z,24.20
2019-01-20T03:04:04.848Z,23.40
2019-01-20T03:04:40.889Z,24.20
2019-01-20T03:05:17.107Z,23.62
2019-01-20T03:05:53.153Z,22.87
2019-01-20T03:06:28.904Z,24.43
2019-01-20T03:07:04.925Z,24.07
2019-01-20T03:07:40.661Z,23.07
2019-01-20T03:08:16.433Z,23.30
2019-01-20T03:08:52.208Z,23.67
2019-01-20T03:09:28.385Z,23.73
2019-01-20T03:10:04.680Z,21.87
2019-01-20T03:10:40.401Z,23.38
2019-01-20T03:11:16.167Z,22.65
2019-01-20T03:11:52.249Z,23.85
2019-01-20T03:12:27.991Z,22.73
2019-01-20T03:13:03.877Z,24.00
2019-01-20T03:13:39.690Z,23.45
2019-01-20T03:14:15.728Z,22.67
2019-01-20T03:14:51.595Z,24.02
2019-01-20T03:15:29.323Z,23.95
2019-01-20T03:16:05.382Z,23.38
2019-01-20T03:16:41.384Z,22.75
2019-01-20T03:17:17.287Z,22.82
2019-01-20T03:17:53.033Z,22.77
2019-01-20T03:18:28.844Z,23.35
2019-01-20T03:19:05.168Z,23.22
2019-01-20T03:19:40.896Z,24.12
2019-01-20T03:20:19.432Z,22.95
2019-01-20T03:20:55.671Z,21.73
2019-01-20T03:21:31.431Z,22.90
2019-01-20T03:22:07.324Z,25.35
2019-01-20T03:22:43.338Z,22.32
2019-01-20T03:23:19.476Z,24.02
2019-01-20T03:23:55.244Z,22.98
2019-01-20T03:24:30.996Z,23.67
2019-01-20T03:25:08.664Z,23.70
2019-01-20T03:25:44.444Z,22.82
2019-01-20T03:26:20.495Z,23.45
2019-01-20T03:26:56.359Z,22.60
2019-01-20T03:27:32.374Z,22.87
2019-01-20T03:28:08.154Z,22.30
2019-01-20T03:28:44.001Z,23.75
2019-01-20T03:29:19.913Z,22.65
2019-01-20T03:29:55.690Z,23.47
2019-01-20T03:30:31.441Z,23.98
2019-01-20T03:31:07.492Z,22.35
2019-01-20T03:31:43.229Z,23.55
2019-01-20T03:32:19.268Z,24.23
2019-01-20T03:32:55.104Z,24.07
2019-01-20T03:33:30.859Z,23.02
2019-01-20T03:34:06.620Z,22.35
2019-01-20T03:34:42.370Z,23.35
2019-01-20T03:35:20.872Z,23.45
2019-01-20T03:35:56.655Z,22.37
2019-01-20T03:36:32.647Z,23.15
2019-01-20T03:37:08.403Z,22.87
2019-01-20T03:37:44.239Z,23.22
2019-01-20T03:38:20.285Z,23.77
2019-01-20T03:38:56.050Z,23.67
2019-01-20T03:39:32.110Z,23.38
2019-01-20T03:40:09.536Z,24.27
2019-01-20T03:40:45.592Z,23.65
2019-01-20T03:41:21.401Z,24.00
2019-01-20T03:41:57.408Z,23.87
2019-01-20T03:42:33.611Z,23.45
2019-01-20T03:43:09.353Z,22.37
2019-01-20T03:43:45.100Z,23.22
2019-01-20T03:44:21.194Z,23.45
2019-01-20T03:44:57.281Z,23.25
2019-01-20T03:45:33.050Z,24.23
2019-01-20T03:46:08.896Z,22.70
2019-01-20T03:46:44.626Z,24.92
2019-01-20T03:47:20.743Z,23.62
2019-01-20T03:47:56.769Z,23.70
2019-01-20T03:48:32.511Z,22.85
2019-01-20T03:49:08.542Z,24.10
2019-01-20T03:49:44.369Z,22.62
2019-01-20T03:50:20.124Z,24.30
2019-01-20T03:50:56.008Z,24.60
2019-01-20T03:51:31.749Z,24.10
2019-01-20T03:52:07.571Z,24.37
2019-01-20T03:52:43.652Z,23.55
2019-01-20T03:53:19.677Z,24.20
2019-01-20T03:53:55.750Z,24.47
2019-01-20T03:54:31.775Z,23.07
2019-01-20T03:55:08.596Z,24.40
2019-01-20T03:55:44.754Z,23.45
2019-01-20T03:56:20.841Z,24.90
2019-01-20T03:56:56.660Z,22.93
2019-01-20T03:57:32.631Z,23.62
2019-01-20T03:58:08.408Z,21.95
2019-01-20T03:58:44.366Z,23.87
2019-01-20T03:59:20.282Z,23.87
2019-01-20T03:59:56.017Z,24.47
2019-01-20T04:00:31.741Z,23.45
2019-01-20T04:01:07.481Z,24.20
2019-01-20T04:01:43.537Z,24.57
2019-01-20T04:02:21.104Z,23.80
2019-01-20T04:03:00.780Z,22.95
2019-01-20T04:03:36.805Z,24.40
2019-01-20T04:04:12.828Z,23.15
2019-01-20T04:04:48.938Z,23.90
2019-01-20T04:05:24.710Z,24.00
2019-01-20T04:06:00.463Z,23.85
2019-01-20T04:06:36.755Z,24.15
2019-01-20T04:07:12.517Z,22.62
2019-01-20T04:07:48.312Z,23.12
2019-01-20T04:08:24.096Z,23.62
2019-01-20T04:08:59.833Z,23.42
2019-01-20T04:09:35.857Z,23.98
2019-01-20T04:10:13.125Z,23.38
2019-01-20T04:10:48.869Z,22.75
2019-01-20T04:11:24.658Z,24.72
2019-01-20T04:12:00.384Z,23.92
2019-01-20T04:12:36.169Z,23.95
2019-01-20T04:13:11.914Z,23.07
2019-01-20T04:13:47.739Z,23.35
2019-01-20T04:14:23.498Z,23.42
2019-01-20T04:14:59.336Z,22.27
2019-01-20T04:15:35.144Z,24.27
2019-01-20T04:16:10.889Z,23.60
2019-01-20T04:16:46.879Z,23.73
2019-01-20T04:17:22.678Z,23.38
2019-01-20T04:17:58.715Z,24.92
2019-01-20T04:18:34.439Z,24.18
2019-01-20T04:19:10.179Z,24.50
2019-01-20T04:19:45.931Z,24.57
2019-01-20T04:20:21.700Z,24.63
2019-01-20T04:20:57.462Z,24.18
2019-01-20T04:21:33.202Z,23.95
2019-01-20T04:22:09.210Z,24.55
2019-01-20T04:22:45.025Z,23.47
2019-01-20T04:23:20.871Z,24.75
2019-01-20T04:23:56.609Z,23.52
2019-01-20T04:24:32.333Z,25.25
2019-01-20T04:25:10.137Z,22.90
2019-01-20T04:25:47.633Z,24.10
2019-01-20T04:26:23.405Z,23.07
2019-01-20T04:26:59.134Z,24.72
2019-01-20T04:27:35.172Z,25.05
2019-01-20T04:28:11.197Z,24.37
2019-01-20T04:28:47.226Z,22.80
2019-01-20T04:29:23.001Z,23.83
2019-01-20T04:29:59.109Z,24.85
2019-01-20T04:30:35.127Z,24.95
2019-01-20T04:31:10.972Z,24.65
2019-01-20T04:31:46.763Z,24.67
2019-01-20T04:32:22.881Z,24.80
2019-01-20T04:32:58.998Z,25.43
2019-01-20T04:33:35.069Z,24.82
2019-01-20T04:34:10.882Z,24.70
2019-01-20T04:34:46.635Z,24.67
2019-01-20T04:35:22.397Z,24.05
2019-01-20T04:35:58.143Z,24.77
2019-01-20T04:36:33.890Z,25.37
2019-01-20T04:37:09.665Z,25.25
2019-01-20T04:37:45.408Z,24.87
2019-01-20T04:38:21.167Z,25.40
2019-01-20T04:38:56.983Z,26.15
2019-01-20T04:39:33.111Z,25.82
2019-01-20T04:40:11.662Z,25.35
2019-01-20T04:40:48.025Z,24.52
2019-01-20T04:41:24.079Z,24.92
2019-01-20T04:41:59.804Z,26.20
2019-01-20T04:42:35.538Z,25.82
2019-01-20T04:43:11.331Z,26.35
2019-01-20T04:43:47.155Z,26.15
2019-01-20T04:44:22.920Z,24.50
2019-01-20T04:44:58.645Z,26.95
2019-01-20T04:45:34.382Z,25.68
2019-01-20T04:46:10.134Z,28.10
2019-01-20T04:46:46.156Z,26.68
2019-01-20T04:47:22.062Z,26.85
2019-01-20T04:47:57.823Z,27.05
2019-01-20T04:48:33.578Z,26.62
2019-01-20T04:49:09.456Z,26.52
2019-01-20T04:49:45.184Z,25.97
2019-01-20T04:50:22.887Z,26.12
2019-01-20T04:50:58.924Z,25.85
2019-01-20T04:51:34.919Z,26.10
2019-01-20T04:52:10.647Z,26.68
2019-01-20T04:52:46.401Z,26.48
2019-01-20T04:53:22.442Z,26.68
2019-01-20T04:53:58.374Z,25.57
2019-01-20T04:54:34.112Z,26.97
2019-01-20T04:55:11.300Z,26.68
2019-01-20T04:55:47.045Z,26.68
2019-01-20T04:56:23.409Z,26.60
2019-01-20T04:56:59.394Z,27.55
2019-01-20T04:57:35.218Z,25.55
2019-01-20T04:58:11.175Z,27.25
2019-01-20T04:58:47.183Z,25.95
2019-01-20T04:59:23.001Z,26.73
2019-01-20T04:59:58.730Z,26.73
2019-01-20T05:00:34.711Z,25.92
2019-01-20T05:01:10.442Z,26.12
2019-01-20T05:01:46.429Z,26.00
2019-01-20T05:02:22.293Z,25.95
2019-01-20T05:02:58.205Z,25.15
2019-01-20T05:03:34.117Z,26.25
2019-01-20T05:04:09.840Z,25.77
2019-01-20T05:04:47.168Z,25.95
2019-01-20T05:05:23.394Z,25.90
2019-01-20T05:05:59.464Z,26.75
2019-01-20T05:06:35.227Z,25.60
2019-01-20T05:07:10.946Z,25.45
2019-01-20T05:07:46.696Z,26.42
2019-01-20T05:08:22.539Z,25.95
2019-01-20T05:08:58.279Z,25.25
2019-01-20T05:09:34.342Z,26.52
2019-01-20T05:10:11.766Z,25.35
2019-01-20T05:10:47.501Z,27.25
2019-01-20T05:11:23.277Z,25.15
2019-01-20T05:11:59.009Z,25.62
2019-01-20T05:12:37.681Z,25.60
2019-01-20T05:13:12.449Z,26.20
2019-01-20T05:13:48.202Z,25.50
2019-01-20T05:14:23.998Z,24.23
2019-01-20T05:14:59.730Z,26.15
2019-01-20T05:15:35.755Z,24.98
2019-01-20T05:16:11.775Z,25.77
2019-01-20T05:16:47.521Z,25.95
2019-01-20T05:17:23.417Z,25.00
2019-01-20T05:17:59.536Z,25.02
2019-01-20T05:18:35.526Z,25.90
2019-01-20T05:19:11.278Z,24.90
2019-01-20T05:19:47.077Z,23.67
2019-01-20T05:20:23.149Z,24.67
2019-01-20T05:20:58.878Z,23.40
2019-01-20T05:21:34.754Z,25.35
2019-01-20T05:22:10.834Z,24.82
2019-01-20T05:22:46.814Z,23.73
2019-01-20T05:23:22.613Z,24.65
2019-01-20T05:23:58.642Z,25.60
2019-01-20T05:24:34.368Z,23.60
2019-01-20T05:25:10.339Z,24.05
2019-01-20T05:25:46.087Z,23.02
2019-01-20T05:26:22.208Z,24.35
2019-01-20T05:26:58.000Z,23.45
2019-01-20T05:27:33.789Z,25.17
2019-01-20T05:28:09.879Z,24.32
2019-01-20T05:28:45.647Z,24.05
2019-01-20T05:29:21.434Z,24.23
2019-01-20T05:29:57.179Z,23.85
2019-01-20T05:30:32.939Z,25.30
2019-01-20T05:31:08.681Z,24.20
2019-01-20T05:31:44.433Z,23.73
2019-01-20T05:32:20.244Z,23.75
2019-01-20T05:32:56.022Z,24.98
2019-01-20T05:33:31.778Z,24.50
2019-01-20T05:34:07.774Z,24.07
2019-01-20T05:34:44.142Z,24.27
2019-01-20T05:35:20.169Z,23.52
2019-01-20T05:35:55.911Z,23.92
2019-01-20T05:36:32.205Z,24.32
2019-01-20T05:37:08.045Z,23.73
2019-01-20T05:37:44.097Z,24.05
2019-01-20T05:38:19.933Z,23.80
2019-01-20T05:38:55.672Z,23.15
2019-01-20T05:39:31.666Z,24.90
2019-01-20T05:40:08.687Z,24.92
2019-01-20T05:40:44.425Z,23.47
2019-01-20T05:41:20.477Z,24.75
2019-01-20T05:41:56.526Z,24.12
2019-01-20T05:42:32.543Z,23.80
2019-01-20T05:43:08.413Z,23.77
2019-01-20T05:43:44.165Z,23.92
2019-01-20T05:44:20.234Z,25.00
2019-01-20T05:44:55.968Z,23.75
2019-01-20T05:45:32.038Z,22.30
2019-01-20T05:46:07.772Z,21.77
2019-01-20T05:46:43.508Z,22.65
2019-01-20T05:47:19.297Z,23.75
2019-01-20T05:47:55.224Z,22.32
2019-01-20T05:48:32.831Z,23.12
2019-01-20T05:49:08.631Z,22.00
2019-01-20T05:49:44.391Z,23.45
2019-01-20T05:50:20.329Z,23.05
2019-01-20T05:50:56.048Z,22.90
2019-01-20T05:51:31.842Z,23.52
2019-01-20T05:52:08.205Z,22.87
2019-01-20T05:52:43.966Z,23.47
2019-01-20T05:53:19.720Z,22.62
2019-01-20T05:53:55.475Z,21.60
2019-01-20T05:54:31.482Z,23.52
2019-01-20T05:55:07.505Z,22.37
2019-01-20T05:55:43.259Z,22.52
2019-01-20T05:56:19.086Z,22.85
2019-01-20T05:56:54.858Z,22.75
2019-01-20T05:57:30.675Z,22.87
2019-01-20T05:58:06.434Z,22.65
2019-01-20T05:58:42.285Z,24.12
2019-01-20T05:59:18.346Z,22.73
2019-01-20T05:59:54.240Z,22.58
2019-01-20T06:00:31.591Z,22.90
2019-01-20T06:01:07.357Z,22.98
2019-01-20T06:01:43.419Z,23.25
2019-01-20T06:02:19.226Z,22.87
2019-01-20T06:02:55.261Z,22.45
2019-01-20T06:03:31.024Z,21.87
2019-01-20T06:04:06.819Z,22.35
2019-01-20T06:04:42.549Z,22.50
2019-01-20T06:05:18.577Z,23.42
2019-01-20T06:05:54.367Z,22.22
2019-01-20T06:06:30.412Z,21.48
2019-01-20T06:07:06.497Z,21.90
2019-01-20T06:07:42.519Z,21.57
2019-01-20T06:08:18.509Z,21.20
2019-01-20T06:08:54.291Z,21.37
2019-01-20T06:09:30.118Z,22.45
2019-01-20T06:10:07.003Z,21.73
2019-01-20T06:10:42.761Z,22.35
2019-01-20T06:11:18.602Z,22.55
2019-01-20T06:11:54.717Z,23.90
2019-01-20T06:12:30.490Z,21.68
2019-01-20T06:13:06.265Z,21.52
2019-01-20T06:13:41.987Z,20.77
2019-01-20T06:14:17.809Z,22.40
2019-01-20T06:14:53.829Z,22.48
2019-01-20T06:15:29.584Z,22.07
2019-01-20T06:16:05.610Z,21.87
2019-01-20T06:16:41.601Z,21.45
2019-01-20T06:17:17.394Z,21.82
2019-01-20T06:17:53.167Z,21.57
2019-01-20T06:18:28.941Z,21.57
2019-01-20T06:19:04.833Z,21.77
2019-01-20T06:19:40.826Z,21.50
2019-01-20T06:20:17.004Z,20.72
2019-01-20T06:20:53.023Z,20.70
2019-01-20T06:21:28.747Z,21.95
2019-01-20T06:22:04.749Z,21.57
2019-01-20T06:22:40.517Z,21.20
2019-01-20T06:23:16.334Z,21.20
2019-01-20T06:23:52.188Z,21.50
2019-01-20T06:24:28.522Z,21.37
2019-01-20T06:25:04.518Z,21.50
2019-01-20T06:25:40.342Z,21.37
2019-01-20T06:26:16.404Z,21.90
2019-01-20T06:26:52.188Z,21.68
2019-01-20T06:27:28.204Z,21.35
2019-01-20T06:28:04.036Z,21.52
2019-01-20T06:28:39.839Z,22.07
2019-01-20T06:29:15.600Z,21.20
2019-01-20T06:29:51.338Z,21.33
2019-01-20T06:30:36.519Z,20.90
2019-01-20T06:31:12.258Z,21.27
2019-01-20T06:31:49.033Z,21.48
2019-01-20T06:32:24.791Z,20.85
2019-01-20T06:33:00.553Z,20.75
2019-01-20T06:33:36.317Z,21.02
2019-01-20T06:34:12.050Z,21.37
2019-01-20T06:34:48.883Z,21.93
2019-01-20T06:35:24.685Z,20.75
2019-01-20T06:36:00.676Z,20.35
2019-01-20T06:36:36.736Z,21.55
2019-01-20T06:37:12.457Z,21.73
2019-01-20T06:37:48.205Z,21.48
2019-01-20T06:38:24.385Z,20.77
2019-01-20T06:39:00.183Z,21.75
2019-01-20T06:39:36.270Z,21.33
2019-01-20T06:40:12.554Z,21.50
2019-01-20T06:40:48.301Z,21.30
2019-01-20T06:41:24.099Z,20.88
2019-01-20T06:41:59.838Z,20.40
2019-01-20T06:42:35.912Z,20.85
2019-01-20T06:43:11.985Z,19.75
2019-01-20T06:43:47.800Z,20.48
2019-01-20T06:44:23.545Z,20.80
2019-01-20T06:44:59.330Z,19.95
2019-01-20T06:45:35.393Z,20.48
2019-01-20T06:46:11.172Z,19.55
2019-01-20T06:46:47.451Z,22.20
2019-01-20T06:47:23.262Z,20.72
2019-01-20T06:47:59.026Z,21.40
2019-01-20T06:48:34.867Z,21.12
2019-01-20T06:49:10.589Z,20.05
2019-01-20T06:49:46.593Z,21.12
2019-01-20T06:50:22.603Z,21.45
2019-01-20T06:50:58.628Z,20.45
2019-01-20T06:51:34.679Z,20.48
2019-01-20T06:52:10.412Z,21.52
2019-01-20T06:52:46.168Z,21.00
2019-01-20T06:53:21.936Z,20.12
2019-01-20T06:53:57.948Z,21.23
2019-01-20T06:54:33.663Z,20.60
2019-01-20T06:55:10.239Z,21.17
2019-01-20T06:55:45.993Z,20.77
2019-01-20T06:56:21.808Z,21.07
2019-01-20T06:56:57.536Z,21.60
2019-01-20T06:57:33.278Z,21.80
2019-01-20T06:58:09.262Z,21.30
2019-01-20T06:58:45.538Z,21.90
2019-01-20T06:59:21.857Z,21.30
2019-01-20T06:59:57.862Z,21.42
2019-01-20T07:00:33.603Z,21.45
2019-01-20T07:01:09.603Z,21.65
2019-01-20T07:01:45.954Z,22.20
2019-01-20T07:02:21.822Z,21.30
2019-01-20T07:02:57.820Z,21.95
2019-01-20T07:03:33.985Z,21.70
2019-01-20T07:04:09.750Z,21.55
2019-01-20T07:04:45.517Z,21.25
2019-01-20T07:05:21.371Z,22.82
2019-01-20T07:05:57.107Z,21.97
2019-01-20T07:06:32.848Z,21.07
2019-01-20T07:07:08.879Z,21.12
2019-01-20T07:07:45.070Z,21.23
2019-01-20T07:08:20.851Z,21.62
2019-01-20T07:08:57.211Z,21.40
2019-01-20T07:09:32.954Z,20.92
2019-01-20T07:10:09.940Z,19.85
2019-01-20T07:10:45.821Z,20.55
2019-01-20T07:11:21.604Z,21.40
2019-01-20T07:11:57.673Z,21.07
2019-01-20T07:12:33.411Z,19.80
2019-01-20T07:13:11.246Z,21.70
2019-01-20T07:13:47.246Z,20.35
2019-01-20T07:14:23.252Z,21.62
2019-01-20T07:14:59.064Z,20.70
2019-01-20T07:15:34.793Z,22.40
2019-01-20T07:16:10.809Z,22.70
2019-01-20T07:16:46.575Z,21.68
2019-01-20T07:17:22.499Z,20.05
2019-01-20T07:17:58.251Z,20.52
2019-01-20T07:18:34.042Z,21.20
2019-01-20T07:19:09.814Z,21.62
2019-01-20T07:19:45.545Z,20.70
2019-01-20T07:20:21.308Z,20.05
2019-01-20T07:20:57.623Z,21.30
2019-01-20T07:21:33.373Z,21.30
2019-01-20T07:22:09.141Z,20.75
2019-01-20T07:22:44.893Z,20.92
2019-01-20T07:23:20.715Z,21.77
2019-01-20T07:23:56.618Z,21.23
2019-01-20T07:24:32.354Z,20.77
2019-01-20T07:25:08.320Z,21.40
2019-01-20T07:25:44.057Z,21.65
2019-01-20T07:26:19.859Z,20.45
2019-01-20T07:26:55.804Z,20.65
2019-01-20T07:27:31.576Z,20.97
2019-01-20T07:28:07.312Z,20.45
2019-01-20T07:28:43.439Z,21.12
2019-01-20T07:29:19.348Z,20.52
2019-01-20T07:29:55.096Z,20.55
2019-01-20T07:30:30.846Z,20.82
2019-01-20T07:31:06.908Z,20.40
2019-01-20T07:31:42.938Z,20.60
2019-01-20T07:32:18.990Z,19.15
2019-01-20T07:32:54.754Z,19.42
2019-01-20T07:33:30.494Z,20.35
2019-01-20T07:34:06.354Z,20.68
2019-01-20T07:34:42.082Z,20.35
2019-01-20T07:35:18.167Z,20.85
2019-01-20T07:35:53.923Z,20.35
2019-01-20T07:36:29.899Z,20.72
2019-01-20T07:37:05.744Z,21.50
2019-01-20T07:37:41.790Z,21.12
2019-01-20T07:38:17.554Z,19.70
2019-01-20T07:38:53.418Z,20.65
2019-01-20T07:39:29.174Z,20.80
2019-01-20T07:40:06.240Z,19.57
2019-01-20T07:40:41.977Z,20.43
2019-01-20T07:41:17.729Z,20.25
2019-01-20T07:41:53.820Z,19.75
2019-01-20T07:42:29.742Z,20.40
2019-01-20T07:43:05.585Z,19.87
2019-01-20T07:43:41.570Z,19.65